Time;durP1;ratioP1;P1;durP2;ratioP2;P2;SDS_P1;SDS_P2;PMS_P1;PMS_P2;Temp;Humidity;BMP_temperature;BMP_pressure;BME280_temperature;BME280_humidity;BME280_pressure;Samples;Min_cycle;Max_cycle;Signal;HPM_P1;HPM_P2
2022/11/24 00:01:41;;;;;;;9.10;3.58;;;8.00;99.90;;;;;;4948875;29;20032;-78
2022/11/24 00:04:07;;;;;;;10.68;4.20;;;8.00;99.90;;;;;;4932461;29;20032;-78
2022/11/24 00:06:34;;;;;;;9.05;3.30;;;8.00;99.90;;;;;;4949764;29;20024;-77
2022/11/24 00:09:00;;;;;;;4.72;2.72;;;8.00;99.90;;;;;;4932464;29;20102;-77
2022/11/24 00:11:28;;;;;;;18.45;4.60;;;8.00;99.90;;;;;;4932505;29;20430;-77
2022/11/24 00:13:55;;;;;;;16.52;5.05;;;8.00;99.90;;;;;;4949643;29;20028;-76
2022/11/24 00:16:23;;;;;;;11.90;4.03;;;8.10;99.90;;;;;;4944190;29;20040;-77
2022/11/24 00:18:51;;;;;;;23.02;4.88;;;8.00;99.90;;;;;;4945837;29;20039;-77
2022/11/24 00:21:19;;;;;;;7.18;3.03;;;8.00;99.90;;;;;;4916645;29;20107;-77
2022/11/24 00:23:45;;;;;;;4.35;2.78;;;8.00;99.90;;;;;;4916345;29;20527;-77
2022/11/24 00:26:16;;;;;;;14.55;4.75;;;7.90;99.90;;;;;;4932226;29;20047;-77
2022/11/24 00:28:44;;;;;;;10.50;4.20;;;7.90;99.90;;;;;;4932224;29;20072;-77
2022/11/24 00:31:19;;;;;;;9.98;3.03;;;7.80;99.90;;;;;;4914387;29;20040;-77
2022/11/24 00:33:46;;;;;;;7.00;2.08;;;7.70;99.90;;;;;;4932113;29;20482;-78
2022/11/24 00:36:13;;;;;;;7.03;3.45;;;7.70;99.90;;;;;;4947889;29;20028;-78
2022/11/24 00:38:39;;;;;;;8.52;2.92;;;7.70;99.90;;;;;;4948932;29;20067;-77
2022/11/24 00:41:05;;;;;;;8.50;2.53;;;7.70;99.90;;;;;;4948877;29;20043;-78
2022/11/24 00:43:31;;;;;;;6.57;3.35;;;7.70;99.90;;;;;;4948941;29;20042;-77
2022/11/24 00:45:58;;;;;;;13.25;5.00;;;7.70;99.90;;;;;;4948849;29;20047;-77
2022/11/24 00:48:25;;;;;;;14.63;3.92;;;7.70;99.90;;;;;;4946815;29;20051;-77
2022/11/24 00:50:59;;;;;;;9.25;4.20;;;7.70;99.90;;;;;;4941188;29;20047;-77
2022/11/24 00:53:25;;;;;;;5.75;2.88;;;7.60;99.90;;;;;;4948864;29;20038;-77
2022/11/24 00:55:51;;;;;;;7.72;2.83;;;7.60;99.90;;;;;;4948819;29;20070;-78
2022/11/24 00:58:17;;;;;;;12.80;4.70;;;7.60;99.90;;;;;;4948701;29;20105;-77
2022/11/24 01:00:43;;;;;;;6.07;3.25;;;7.60;99.90;;;;;;4948606;29;20119;-77
2022/11/24 01:03:09;;;;;;;18.67;3.47;;;7.60;99.90;;;;;;4948582;29;20040;-77
2022/11/24 01:05:35;;;;;;;10.20;4.38;;;7.60;99.90;;;;;;4948732;29;20034;-78
2022/11/24 01:08:02;;;;;;;12.95;4.07;;;7.70;99.90;;;;;;4948782;29;20120;-75
2022/11/24 01:10:29;;;;;;;13.85;4.93;;;7.70;99.90;;;;;;4931589;29;20032;-75
2022/11/24 01:12:54;;;;;;;12.65;3.67;;;7.70;99.90;;;;;;4948474;29;20051;-75
2022/11/24 01:15:20;;;;;;;5.47;2.85;;;7.80;99.90;;;;;;4948429;29;20039;-75
2022/11/24 01:17:46;;;;;;;12.07;4.05;;;7.80;99.90;;;;;;4948493;29;20123;-75
2022/11/24 01:20:13;;;;;;;19.73;4.88;;;7.90;99.90;;;;;;4948501;29;20043;-75
2022/11/24 01:22:40;;;;;;;12.05;3.50;;;7.90;99.90;;;;;;4948581;29;20039;-75
2022/11/24 01:25:06;;;;;;;10.43;5.07;;;7.90;99.90;;;;;;4948405;29;20027;-75
2022/11/24 01:27:32;;;;;;;16.70;5.45;;;7.90;99.90;;;;;;4948448;29;20028;-77
2022/11/24 01:29:58;;;;;;;4.38;1.33;;;8.00;99.90;;;;;;4947489;29;20058;-77
2022/11/24 01:32:24;;;;;;;10.73;3.42;;;8.10;99.90;;;;;;4948291;29;20047;-75
2022/11/24 01:34:49;;;;;;;9.32;2.63;;;8.10;99.90;;;;;;4948299;29;20071;-78
2022/11/24 01:37:15;;;;;;;6.45;4.30;;;8.00;99.90;;;;;;4915793;29;20112;-75
2022/11/24 01:39:41;;;;;;;9.02;3.17;;;8.10;99.90;;;;;;4948133;29;20051;-75
2022/11/24 01:42:08;;;;;;;5.25;2.35;;;8.10;99.90;;;;;;4948075;29;20038;-75
2022/11/24 01:44:34;;;;;;;5.10;4.32;;;8.00;99.90;;;;;;4948115;29;20031;-75
2022/11/24 01:47:34;;;;;;;7.30;3.72;;;8.10;99.90;;;;;;4930948;29;20028;-77
2022/11/24 01:50:02;;;;;;;9.00;4.65;;;8.00;99.90;;;;;;4931224;29;20040;-78
2022/11/24 01:52:36;;;;;;;7.95;3.60;;;8.00;99.90;;;;;;4948195;29;20062;-77
2022/11/24 01:55:08;;;;;;;17.55;5.20;;;7.90;99.90;;;;;;4931166;29;20027;-77
2022/11/24 01:57:45;;;;;;;10.23;4.07;;;7.90;99.90;;;;;;4948161;29;20357;-75
2022/11/24 02:00:13;;;;;;;5.85;3.72;;;7.80;99.90;;;;;;4948003;29;20060;-77
2022/11/24 02:02:41;;;;;;;8.43;3.22;;;7.80;99.90;;;;;;4948112;29;20055;-77
2022/11/24 02:05:19;;;;;;;8.07;3.60;;;7.80;99.90;;;;;;4947972;29;20028;-77
2022/11/24 02:07:46;;;;;;;13.35;4.80;;;7.80;99.90;;;;;;4947717;29;20035;-77
2022/11/24 02:10:13;;;;;;;10.80;4.80;;;7.80;99.90;;;;;;4948163;29;20044;-77
2022/11/24 02:12:43;;;;;;;15.02;4.03;;;7.80;99.90;;;;;;4947964;29;20032;-77
2022/11/24 02:15:10;;;;;;;13.27;2.73;;;7.90;99.90;;;;;;4948071;29;20397;-78
2022/11/24 02:17:36;;;;;;;18.02;3.67;;;7.90;99.90;;;;;;4948059;29;20405;-77
2022/11/24 02:20:05;;;;;;;9.75;3.78;;;7.90;99.90;;;;;;4930882;29;20044;-77
2022/11/24 02:22:37;;;;;;;10.45;4.38;;;7.90;99.90;;;;;;4911655;29;20060;-77
2022/11/24 02:25:22;;;;;;;8.95;3.72;;;8.00;99.90;;;;;;4928973;29;20028;-77
2022/11/24 02:27:49;;;;;;;17.98;4.13;;;8.00;99.90;;;;;;4929113;29;20028;-77
2022/11/24 02:30:16;;;;;;;14.52;4.82;;;8.00;99.90;;;;;;4927330;29;20028;-78
2022/11/24 02:32:42;;;;;;;11.27;3.10;;;8.10;99.90;;;;;;4938449;29;20123;-77
2022/11/24 02:35:09;;;;;;;8.65;4.68;;;8.10;99.90;;;;;;4946828;29;20068;-77
2022/11/24 02:37:35;;;;;;;15.25;4.68;;;8.20;99.90;;;;;;4947335;29;20449;-77
2022/11/24 02:40:02;;;;;;;13.95;5.93;;;8.20;99.90;;;;;;4948123;29;20052;-77
2022/11/24 02:42:32;;;;;;;13.77;4.43;;;8.30;99.90;;;;;;4950973;29;20036;-77
2022/11/24 02:44:59;;;;;;;;;;;8.40;99.90;;;;;;4951864;29;20426;-74
2022/11/24 02:47:25;;;;;;;9.07;4.57;;;8.40;99.90;;;;;;4949829;29;20280;-77
2022/11/24 02:49:50;;;;;;;18.00;5.68;;;8.40;99.90;;;;;;4951265;29;20092;-78
2022/11/24 02:52:16;;;;;;;11.88;4.97;;;8.40;99.90;;;;;;4950820;29;20486;-77
2022/11/24 02:54:42;;;;;;;13.23;4.78;;;8.40;99.90;;;;;;4950769;29;20028;-77
2022/11/24 02:57:09;;;;;;;8.45;2.75;;;8.50;99.90;;;;;;4950907;29;20042;-75
2022/11/24 02:59:34;;;;;;;6.38;3.55;;;8.40;99.90;;;;;;4950880;29;20055;-77
2022/11/24 03:02:01;;;;;;;15.13;4.25;;;8.50;99.90;;;;;;4933624;29;20024;-76
2022/11/24 03:04:27;;;;;;;17.35;5.28;;;8.50;99.90;;;;;;4934006;29;20039;-77
2022/11/24 03:06:53;;;;;;;14.55;4.47;;;8.50;99.90;;;;;;4950767;29;20044;-77
2022/11/24 03:09:19;;;;;;;25.02;4.80;;;8.60;99.90;;;;;;4939578;29;20024;-77
2022/11/24 03:11:45;;;;;;;8.73;3.65;;;8.60;99.90;;;;;;4950697;29;20035;-76
2022/11/24 03:14:11;;;;;;;20.65;4.68;;;8.60;99.90;;;;;;4950614;29;20091;-77
2022/11/24 03:16:37;;;;;;;12.73;4.82;;;8.50;99.90;;;;;;4950601;29;20032;-77
2022/11/24 03:19:03;;;;;;;14.30;5.95;;;8.50;99.90;;;;;;4950745;29;20492;-76
2022/11/24 03:21:30;;;;;;;11.10;4.03;;;8.60;99.90;;;;;;4933309;29;20032;-77
2022/11/24 03:23:56;;;;;;;12.63;5.45;;;8.60;99.90;;;;;;4950151;29;20032;-77
2022/11/24 03:26:23;;;;;;;14.90;5.22;;;8.60;99.90;;;;;;4950647;29;20043;-77
2022/11/24 03:28:49;;;;;;;7.75;5.15;;;8.60;99.90;;;;;;4950331;29;20031;-77
2022/11/24 03:31:15;;;;;;;6.38;4.00;;;8.60;99.90;;;;;;4933257;29;20043;-77
2022/11/24 03:33:40;;;;;;;22.88;6.53;;;8.70;99.90;;;;;;4950267;29;20044;-78
2022/11/24 03:36:07;;;;;;;8.85;3.45;;;8.80;99.90;;;;;;4949971;29;20042;-75
2022/11/24 03:38:33;;;;;;;16.08;4.82;;;8.80;99.90;;;;;;4950184;29;20063;-75
2022/11/24 03:40:59;;;;;;;15.48;5.45;;;8.70;99.90;;;;;;4950179;29;20055;-77
2022/11/24 03:43:25;;;;;;;19.48;5.88;;;8.80;99.90;;;;;;4950014;29;20070;-77
2022/11/24 03:45:50;;;;;;;15.45;4.80;;;8.80;99.90;;;;;;4949904;29;20129;-75
2022/11/24 03:48:20;;;;;;;11.68;5.97;;;8.80;99.90;;;;;;4950267;29;20032;-77
2022/11/24 03:50:56;;;;;;;15.73;4.40;;;8.80;99.90;;;;;;4932507;29;20020;-77
2022/11/24 03:53:23;;;;;;;9.63;4.72;;;8.80;99.90;;;;;;4949296;29;20038;-78
2022/11/24 03:55:49;;;;;;;6.55;3.65;;;8.80;99.90;;;;;;4949902;29;20032;-75
2022/11/24 03:58:15;;;;;;;9.98;4.78;;;8.80;99.90;;;;;;4949912;29;20035;-76
2022/11/24 04:00:41;;;;;;;15.55;3.63;;;8.70;99.90;;;;;;4949790;29;20513;-78
2022/11/24 04:03:07;;;;;;;11.40;4.60;;;8.70;99.90;;;;;;4932660;29;20071;-77
2022/11/24 04:05:35;;;;;;;9.75;5.22;;;8.60;99.90;;;;;;4949575;29;20039;-75
2022/11/24 04:08:02;;;;;;;12.60;2.83;;;8.70;99.90;;;;;;4949656;29;20091;-75
2022/11/24 04:10:34;;;;;;;12.38;4.80;;;8.70;99.90;;;;;;4949710;29;20055;-75
2022/11/24 04:13:00;;;;;;;11.10;4.05;;;8.60;99.90;;;;;;4949711;29;20106;-75
2022/11/24 04:15:26;;;;;;;14.93;4.43;;;8.70;99.90;;;;;;4932505;29;20130;-75
2022/11/24 04:17:54;;;;;;;10.20;5.45;;;8.70;99.90;;;;;;4949416;29;20040;-76
2022/11/24 04:20:21;;;;;;;12.15;5.25;;;8.70;99.90;;;;;;4949306;29;20031;-75
2022/11/24 04:22:48;;;;;;;20.23;4.95;;;8.70;99.90;;;;;;4932283;29;20027;-75
2022/11/24 04:25:16;;;;;;;10.43;6.05;;;8.70;99.90;;;;;;4949316;29;20063;-78
2022/11/24 04:27:42;;;;;;;12.23;4.80;;;8.80;99.90;;;;;;4949539;29;20119;-75
2022/11/24 04:30:10;;;;;;;27.73;7.20;;;8.70;99.90;;;;;;4949230;29;20028;-75
2022/11/24 04:32:36;;;;;;;19.42;7.50;;;8.70;99.90;;;;;;4932181;29;20036;-77
2022/11/24 04:35:03;;;;;;;8.15;4.93;;;8.70;99.90;;;;;;4932100;29;20043;-75
2022/11/24 04:37:28;;;;;;;15.25;4.22;;;8.80;99.90;;;;;;4931829;29;20031;-76
2022/11/24 04:39:55;;;;;;;26.80;7.20;;;8.70;99.90;;;;;;4948597;29;20075;-75
2022/11/24 04:42:21;;;;;;;6.03;4.68;;;8.70;99.90;;;;;;4932166;29;20071;-75
2022/11/24 04:44:46;;;;;;;14.50;3.65;;;8.60;99.90;;;;;;4932042;29;20066;-77
2022/11/24 04:47:19;;;;;;;9.73;4.40;;;8.60;99.90;;;;;;4948821;29;20087;-76
2022/11/24 04:49:46;;;;;;;20.85;5.75;;;8.60;99.90;;;;;;4949109;29;20032;-77
2022/11/24 04:52:12;;;;;;;19.08;6.03;;;8.60;99.90;;;;;;4931855;29;20038;-77
2022/11/24 04:54:37;;;;;;;7.85;4.25;;;8.50;99.90;;;;;;4915747;29;20064;-77
2022/11/24 04:57:03;;;;;;;11.98;6.32;;;8.50;99.90;;;;;;4948465;29;20575;-77
2022/11/24 04:59:29;;;;;;;10.10;3.95;;;8.50;99.90;;;;;;4948770;29;20083;-77
2022/11/24 05:01:55;;;;;;;11.38;3.92;;;8.60;99.90;;;;;;4948648;29;20058;-77
2022/11/24 05:04:21;;;;;;;14.15;5.32;;;8.50;99.90;;;;;;4948782;29;20040;-76
2022/11/24 05:06:47;;;;;;;6.90;2.85;;;8.40;99.90;;;;;;4931496;29;20039;-77
2022/11/24 05:09:15;;;;;;;17.88;5.68;;;8.40;99.90;;;;;;4948694;29;20036;-77
2022/11/24 05:11:41;;;;;;;18.35;6.15;;;8.40;99.90;;;;;;4948335;29;20032;-77
2022/11/24 05:14:07;;;;;;;7.97;3.50;;;8.30;99.90;;;;;;4931537;29;20038;-77
2022/11/24 05:16:32;;;;;;;13.50;3.88;;;8.20;99.90;;;;;;4931328;29;20040;-78
2022/11/24 05:18:59;;;;;;;15.65;3.10;;;8.20;99.90;;;;;;4948544;29;20040;-77
2022/11/24 05:21:24;;;;;;;5.75;2.75;;;8.10;99.90;;;;;;4948387;29;20027;-77
2022/11/24 05:23:50;;;;;;;8.00;3.28;;;8.10;99.90;;;;;;4948469;29;20046;-77
2022/11/24 05:26:16;;;;;;;8.63;4.45;;;8.10;99.90;;;;;;4948314;29;20106;-77
2022/11/24 05:28:42;;;;;;;21.20;4.03;;;8.00;99.90;;;;;;4931105;29;20028;-77
2022/11/24 05:31:07;;;;;;;8.15;4.10;;;8.00;99.90;;;;;;4948484;29;20039;-76
2022/11/24 05:33:33;;;;;;;3.17;2.80;;;7.90;99.90;;;;;;4948146;29;20036;-76
2022/11/24 05:36:02;;;;;;;14.15;2.70;;;7.80;99.90;;;;;;4931121;29;20023;-77
2022/11/24 05:38:29;;;;;;;7.88;2.40;;;7.80;99.90;;;;;;4948355;29;20039;-77
2022/11/24 05:41:03;;;;;;;9.07;3.97;;;7.70;99.90;;;;;;4947297;29;20047;-76
2022/11/24 05:43:29;;;;;;;10.82;2.53;;;7.80;99.90;;;;;;4930690;29;20031;-76
2022/11/24 05:45:58;;;;;;;8.75;3.60;;;7.80;99.90;;;;;;4931091;29;20046;-75
2022/11/24 05:48:25;;;;;;;6.18;2.22;;;7.70;99.90;;;;;;4948476;29;20058;-76
2022/11/24 05:50:55;;;;;;;6.88;1.98;;;7.80;99.90;;;;;;4959772;29;20046;-76
2022/11/24 05:53:21;;;;;;;3.78;2.45;;;7.70;99.90;;;;;;4927768;29;20385;-74
2022/11/24 05:55:47;;;;;;;9.65;3.20;;;7.80;99.90;;;;;;4928540;29;20076;-76
2022/11/24 05:58:13;;;;;;;9.15;1.80;;;7.80;99.90;;;;;;4949127;29;20102;-76
2022/11/24 06:00:39;;;;;;;3.30;1.55;;;7.80;99.90;;;;;;4928524;29;20068;-75
2022/11/24 06:03:05;;;;;;;4.30;2.15;;;7.90;99.90;;;;;;4930679;29;20118;-75
2022/11/24 06:05:30;;;;;;;3.22;1.85;;;8.00;99.90;;;;;;4945777;29;20024;-76
2022/11/24 06:07:59;;;;;;;3.53;1.08;;;8.00;99.90;;;;;;4914944;29;20389;-76
2022/11/24 06:10:25;;;;;;;5.10;2.75;;;8.10;99.90;;;;;;4932245;29;20016;-74
2022/11/24 06:12:51;;;;;;;5.07;1.38;;;8.20;99.90;;;;;;4929670;29;20031;-76
2022/11/24 06:15:17;;;;;;;9.98;2.28;;;8.20;99.90;;;;;;4913552;29;20058;-74
2022/11/24 06:17:43;;;;;;;4.97;2.15;;;8.30;99.90;;;;;;4915703;29;20024;-74
2022/11/24 06:20:10;;;;;;;2.17;1.38;;;8.40;99.90;;;;;;4917391;29;20035;-76
2022/11/24 06:22:36;;;;;;;3.03;1.80;;;8.30;99.90;;;;;;4918138;29;20040;-74
2022/11/24 06:25:03;;;;;;;4.30;1.00;;;8.30;99.90;;;;;;4933347;29;20043;-74
2022/11/24 06:27:29;;;;;;;2.05;1.27;;;8.40;99.90;;;;;;4917691;29;20051;-74
2022/11/24 06:29:55;;;;;;;2.72;1.85;;;8.30;99.90;;;;;;4917289;29;20050;-74
2022/11/24 06:32:22;;;;;;;8.23;1.58;;;8.30;99.90;;;;;;4933414;29;20032;-74
2022/11/24 06:34:48;;;;;;;3.40;1.92;;;8.30;99.90;;;;;;4950065;29;20032;-74
2022/11/24 06:37:14;;;;;;;5.90;1.58;;;8.30;99.90;;;;;;4933546;29;20039;-74
2022/11/24 06:39:41;;;;;;;1.80;1.20;;;8.30;99.90;;;;;;4916739;29;20521;-76
2022/11/24 06:42:07;;;;;;;3.90;1.65;;;8.30;99.90;;;;;;4915908;29;20572;-74
2022/11/24 06:44:33;;;;;;;1.75;1.65;;;8.30;99.90;;;;;;4950618;29;20355;-74
2022/11/24 06:46:59;;;;;;;5.82;1.58;;;8.20;99.90;;;;;;4950858;29;20034;-74
2022/11/24 06:49:24;;;;;;;4.47;1.60;;;8.10;99.90;;;;;;4926454;29;20063;-74
2022/11/24 06:51:52;;;;;;;1.45;1.08;;;8.10;99.90;;;;;;4933380;29;20505;-74
2022/11/24 06:54:20;;;;;;;2.38;1.27;;;8.00;99.90;;;;;;4950473;29;20023;-74
2022/11/24 06:56:46;;;;;;;1.88;1.30;;;7.90;99.90;;;;;;4949882;29;20032;-74
2022/11/24 06:59:19;;;;;;;7.75;2.25;;;7.70;99.90;;;;;;4949296;29;20790;-74
2022/11/24 07:01:46;;;;;;;3.67;2.13;;;7.60;99.90;;;;;;4933306;29;20028;-74
2022/11/24 07:04:12;;;;;;;1.65;1.48;;;7.60;99.90;;;;;;4932952;29;20034;-74
2022/11/24 07:06:41;;;;;;;3.00;1.50;;;7.50;99.90;;;;;;4950266;29;20032;-75
2022/11/24 07:09:12;;;;;;;4.65;0.95;;;7.40;99.90;;;;;;4950458;29;20060;-76
2022/11/24 07:11:38;;;;;;;3.92;1.58;;;7.50;99.90;;;;;;4950563;29;20028;-75
2022/11/24 07:14:05;;;;;;;8.48;1.67;;;7.50;99.90;;;;;;4950662;29;20058;-78
2022/11/24 07:16:31;;;;;;;3.33;1.77;;;7.50;99.90;;;;;;4949863;29;20043;-75
2022/11/24 07:18:57;;;;;;;1.13;1.02;;;7.50;99.90;;;;;;4950466;29;20130;-76
2022/11/24 07:21:24;;;;;;;2.83;1.67;;;7.70;99.90;;;;;;4950343;29;20110;-75
2022/11/24 07:23:51;;;;;;;1.42;1.23;;;7.70;99.90;;;;;;4950296;29;20038;-75
2022/11/24 07:26:18;;;;;;;4.90;1.48;;;7.70;99.90;;;;;;4932716;29;20501;-78
2022/11/24 07:28:44;;;;;;;3.67;1.33;;;7.80;99.90;;;;;;4932922;29;20028;-78
2022/11/24 07:31:12;;;;;;;2.97;1.65;;;7.80;99.90;;;;;;4933240;29;20063;-76
2022/11/24 07:33:38;;;;;;;3.50;1.15;;;7.90;99.90;;;;;;4950107;29;20035;-75
2022/11/24 07:36:05;;;;;;;4.40;1.50;;;7.90;99.90;;;;;;4950240;29;20058;-77
2022/11/24 07:38:32;;;;;;;5.47;2.83;;;8.00;99.90;;;;;;4932999;29;20466;-77
2022/11/24 07:41:00;;;;;;;7.85;7.18;;;8.00;99.90;;;;;;4949825;29;20046;-76
2022/11/24 07:43:26;;;;;;;10.63;6.32;;;7.90;99.90;;;;;;4932769;29;20036;-77
2022/11/24 07:45:52;;;;;;;8.43;3.88;;;7.90;99.90;;;;;;4932530;29;20031;-77
2022/11/24 07:48:19;;;;;;;2.33;1.90;;;8.00;99.90;;;;;;4949841;29;20087;-77
2022/11/24 07:50:45;;;;;;;2.13;1.23;;;8.00;99.90;;;;;;4916045;29;20058;-77
2022/11/24 07:53:10;;;;;;;4.47;2.63;;;8.00;99.90;;;;;;4950162;29;20047;-75
2022/11/24 07:55:36;;;;;;;4.70;2.13;;;8.10;99.90;;;;;;4949687;29;20042;-75
2022/11/24 07:58:02;;;;;;;4.57;2.78;;;8.10;99.90;;;;;;4933069;29;20111;-78
2022/11/24 08:00:28;;;;;;;2.03;1.77;;;8.10;99.90;;;;;;4949790;29;20036;-78
2022/11/24 08:02:54;;;;;;;4.80;2.15;;;9.20;99.90;;;;;;4949475;29;20123;-77
2022/11/24 08:05:20;;;;;;;4.18;2.75;;;10.50;99.90;;;;;;4949681;29;20027;-77
2022/11/24 08:07:46;;;;;;;6.53;2.60;;;11.40;99.90;;;;;;4949697;29;20028;-76
2022/11/24 08:10:11;;;;;;;10.02;2.63;;;12.40;99.90;;;;;;4932128;29;20047;-76
2022/11/24 08:12:37;;;;;;;1.98;1.63;;;13.00;99.90;;;;;;4949262;29;20043;-77
2022/11/24 08:15:03;;;;;;;3.83;2.50;;;13.30;99.90;;;;;;4949564;29;20035;-77
2022/11/24 08:17:29;;;;;;;1.67;1.45;;;13.80;99.90;;;;;;4949264;29;20043;-74
2022/11/24 08:19:55;;;;;;;4.43;1.77;;;14.50;99.90;;;;;;4948879;29;20051;-74
2022/11/24 08:22:21;;;;;;;6.63;1.88;;;15.10;99.90;;;;;;4931605;29;20035;-77
2022/11/24 08:24:48;;;;;;;3.45;2.75;;;15.30;99.90;;;;;;4932086;29;20106;-76
2022/11/24 08:27:15;;;;;;;6.50;1.60;;;15.80;99.90;;;;;;4948913;29;20034;-76
2022/11/24 08:29:42;;;;;;;6.97;1.88;;;16.10;99.90;;;;;;4949212;29;20374;-75
2022/11/24 08:32:08;;;;;;;4.55;2.42;;;16.10;99.90;;;;;;4948221;29;20036;-77
2022/11/24 08:34:34;;;;;;;8.80;2.20;;;16.10;99.90;;;;;;4931870;29;20095;-75
2022/11/24 08:37:02;;;;;;;8.05;2.30;;;16.20;99.90;;;;;;4948816;29;20063;-75
2022/11/24 08:39:29;;;;;;;5.22;2.67;;;16.30;99.90;;;;;;4948500;29;20051;-75
2022/11/24 08:41:55;;;;;;;2.00;1.52;;;16.70;99.90;;;;;;4948532;29;20110;-75
2022/11/24 08:44:21;;;;;;;3.97;2.05;;;17.10;99.90;;;;;;4947890;29;20036;-77
2022/11/24 08:46:46;;;;;;;9.35;2.25;;;17.50;99.90;;;;;;4931519;29;20047;-76
2022/11/24 08:49:13;;;;;;;4.78;1.33;;;17.10;99.90;;;;;;4948642;29;20068;-77
2022/11/24 08:51:39;;;;;;;5.82;2.25;;;17.20;99.90;;;;;;4948563;29;20024;-76
2022/11/24 08:54:07;;;;;;;4.47;2.40;;;17.40;99.90;;;;;;4948493;29;20042;-76
2022/11/24 08:56:33;;;;;;;3.88;1.90;;;16.80;99.90;;;;;;4948450;29;20032;-76
2022/11/24 08:58:59;;;;;;;5.03;1.95;;;16.80;99.90;;;;;;4948616;29;20128;-77
2022/11/24 09:01:26;;;;;;;7.68;2.45;;;16.40;99.90;;;;;;4948402;29;20389;-76
2022/11/24 09:03:52;;;;;;;8.80;2.72;;;16.60;99.90;;;;;;4931218;29;20032;-76
2022/11/24 09:06:23;;;;;;;8.05;2.35;;;16.60;99.90;;;;;;4947473;29;20114;-77
2022/11/24 09:08:50;;;;;;;15.85;2.92;;;16.70;99.90;;;;;;4948420;29;20090;-77
2022/11/24 09:11:17;;;;;;;5.82;2.83;;;17.00;99.90;;;;;;4948246;29;20040;-75
2022/11/24 09:13:43;;;;;;;6.50;2.92;;;17.40;99.90;;;;;;4948647;29;20055;-77
2022/11/24 09:16:18;;;;;;;8.45;2.10;;;17.30;99.90;;;;;;4948152;29;20040;-75
2022/11/24 09:18:45;;;;;;;12.90;2.78;;;17.90;99.90;;;;;;4948361;29;20051;-75
2022/11/24 09:21:13;;;;;;;5.90;1.02;;;18.30;99.90;;;;;;4948205;29;20043;-75
2022/11/24 09:23:39;;;;;;;13.23;2.95;;;18.20;99.90;;;;;;4947851;29;20055;-75
2022/11/24 09:26:08;;;;;;;2.53;2.03;;;18.50;99.90;;;;;;4947737;29;20020;-75
2022/11/24 09:28:34;;;;;;;31.02;22.90;;;19.00;99.90;;;;;;4948137;29;20041;-75
2022/11/24 09:31:05;;;;;;;12.73;11.25;;;19.20;99.90;;;;;;4948248;29;20499;-74
2022/11/24 09:33:31;;;;;;;9.07;4.03;;;18.90;99.90;;;;;;4947819;29;20409;-75
2022/11/24 09:35:57;;;;;;;8.75;3.75;;;18.80;99.90;;;;;;4947961;29;20083;-75
2022/11/24 09:38:23;;;;;;;14.15;8.18;;;18.90;99.90;;;;;;4948010;29;20042;-75
2022/11/24 09:40:51;;;;;;;11.77;7.72;;;18.30;99.90;;;;;;4947723;29;20058;-75
2022/11/24 09:43:28;;;;;;;25.85;16.05;;;19.10;99.90;;;;;;4947782;29;20115;-76
2022/11/24 09:46:32;;;;;;;17.27;11.07;;;19.10;99.90;;;;;;4930975;29;20038;-75
2022/11/24 09:49:02;;;;;;;6.78;3.63;;;18.80;99.90;;;;;;4947973;29;20036;-77
2022/11/24 09:51:30;;;;;;;5.55;2.95;;;19.50;99.90;;;;;;4951064;29;20063;-75
2022/11/24 09:54:15;;;;;;;5.32;2.47;;;19.60;99.90;;;;;;4951382;29;20057;-75
2022/11/24 09:56:42;;;;;;;10.25;2.97;;;18.70;99.90;;;;;;4951340;29;20035;-76
2022/11/24 09:59:18;;;;;;;4.85;3.05;;;19.20;99.90;;;;;;4951516;29;20036;-74
2022/11/24 10:01:46;;;;;;;2.83;1.63;;;19.60;99.90;;;;;;4951553;29;20051;-76
2022/11/24 10:04:21;;;;;;;5.43;2.70;;;19.50;99.90;;;;;;4951537;29;20035;-74
2022/11/24 10:07:14;;;;;;;5.38;2.15;;;19.30;99.90;;;;;;4951585;29;20027;-76
2022/11/24 10:10:18;;;;;;;6.00;2.15;;;19.00;99.90;;;;;;4951758;29;20107;-75
2022/11/24 10:12:53;;;;;;;6.90;1.33;;;19.40;99.90;;;;;;4951540;29;20088;-78
2022/11/24 10:15:24;;;;;;;9.30;2.47;;;20.00;99.90;;;;;;4951698;29;20031;-78
2022/11/24 10:18:17;;;;;;;6.97;1.67;;;19.60;99.90;;;;;;4952203;29;20040;-76
2022/11/24 10:20:43;;;;;;;4.18;2.22;;;19.80;99.90;;;;;;4951134;29;20056;-78
2022/11/24 10:23:40;;;;;;;5.25;2.63;;;20.60;99.90;;;;;;4951315;29;20032;-78
2022/11/24 10:26:26;;;;;;;3.78;2.30;;;20.20;99.90;;;;;;4951312;29;20023;-78
2022/11/24 10:28:55;;;;;;;2.67;1.65;;;20.30;99.90;;;;;;4951701;29;20079;-78
2022/11/24 10:31:36;;;;;;;14.15;2.63;;;19.70;99.90;;;;;;4934099;29;20024;-78
2022/11/24 10:34:36;;;;;;;7.53;2.00;;;20.00;99.90;;;;;;4950948;29;20035;-76
2022/11/24 10:37:21;;;;;;;;;;;20.20;99.90;;;;;;4932221;29;20067;-76
2022/11/24 10:39:50;;;;;;;4.90;2.05;;;19.30;99.90;;;;;;4950514;29;19919;-78
2022/11/24 10:42:27;;;;;;;7.28;2.25;;;19.20;99.90;;;;;;4947629;29;20506;-79
2022/11/24 10:45:13;;;;;;;4.60;1.55;;;18.40;99.90;;;;;;4950728;29;20031;-77
2022/11/24 10:47:40;;;;;;;13.00;2.13;;;17.90;99.90;;;;;;4933682;29;20028;-78
2022/11/24 10:50:30;;;;;;;3.85;1.50;;;17.00;99.90;;;;;;4934282;29;20024;-78
2022/11/24 10:53:07;;;;;;;19.02;2.80;;;16.70;99.90;;;;;;4935556;29;20036;-77
2022/11/24 10:55:55;;;;;;;4.78;2.08;;;16.70;99.90;;;;;;4950749;29;20434;-78
2022/11/24 10:58:25;;;;;;;8.18;2.47;;;16.80;99.90;;;;;;4950848;29;20074;-76
2022/11/24 11:00:53;;;;;;;4.43;2.38;;;16.40;99.90;;;;;;4950406;29;20024;-76
2022/11/24 11:03:20;;;;;;;11.63;2.17;;;16.30;99.90;;;;;;4950536;29;20117;-76
2022/11/24 11:05:55;;;;;;;6.22;3.40;;;16.40;99.90;;;;;;4950376;29;20167;-76
2022/11/24 11:08:28;;;;;;;4.00;2.65;;;16.60;99.90;;;;;;4950445;29;20039;-75
2022/11/24 11:11:18;;;;;;;6.30;2.78;;;16.50;99.90;;;;;;4949566;29;20056;-76
2022/11/24 11:13:50;;;;;;;;;;;16.10;99.90;;;;;;4950971;29;20027;-73
2022/11/24 11:16:44;;;;;;;4.30;1.60;;;16.10;99.90;;;;;;4933608;29;19973;-76
2022/11/24 11:19:42;;;;;;;10.95;6.97;;;15.90;99.90;;;;;;4914732;29;20040;-76
2022/11/24 11:22:11;;;;;;;40.15;26.08;;;15.60;99.90;;;;;;4945286;29;20440;-75
2022/11/24 11:24:39;;;;;;;23.55;13.63;;;15.90;99.90;;;;;;4969746;29;20026;-75
2022/11/24 11:27:16;;;;;;;11.65;4.88;;;15.70;99.90;;;;;;4936330;29;20031;-76
2022/11/24 11:29:42;;;;;;;13.55;10.95;;;15.90;99.90;;;;;;4963594;29;20024;-76
2022/11/24 11:32:21;;;;;;;5.13;3.15;;;15.80;99.90;;;;;;4933243;29;20031;-76
2022/11/24 11:34:49;;;;;;;5.30;3.90;;;15.50;99.90;;;;;;4950608;29;20031;-75
2022/11/24 11:37:16;;;;;;;9.00;6.63;;;15.30;99.90;;;;;;4933119;29;20035;-76
2022/11/24 11:39:46;;;;;;;16.23;7.32;;;15.10;99.90;;;;;;4950213;29;20115;-76
2022/11/24 11:42:40;;;;;;;2.63;1.70;;;15.30;99.90;;;;;;4950030;29;20039;-75
2022/11/24 11:45:14;;;;;;;6.50;3.38;;;15.10;99.90;;;;;;4950270;29;20068;-76
2022/11/24 11:47:43;;;;;;;7.85;2.15;;;15.10;99.90;;;;;;4950105;29;20118;-76
2022/11/24 11:50:15;;;;;;;6.25;3.80;;;15.20;99.90;;;;;;4949988;29;20054;-76
2022/11/24 11:52:55;;;;;;;6.40;2.33;;;15.30;99.90;;;;;;4932728;29;20034;-77
2022/11/24 11:55:58;;;;;;;6.95;2.25;;;15.50;99.90;;;;;;4949877;29;20046;-76
2022/11/24 11:58:30;;;;;;;7.65;4.22;;;15.30;99.90;;;;;;4949823;29;20047;-76
2022/11/24 12:01:14;;;;;;;9.20;3.45;;;15.10;99.90;;;;;;4949586;29;20626;-77
2022/11/24 12:03:55;;;;;;;11.38;3.55;;;15.10;99.90;;;;;;4949698;29;20059;-75
2022/11/24 12:06:32;;;;;;;7.35;4.47;;;15.40;99.90;;;;;;4949589;29;20036;-75
2022/11/24 12:09:07;;;;;;;9.98;7.10;;;15.60;99.90;;;;;;4932845;29;20063;-76
2022/11/24 12:11:52;;;;;;;9.70;4.20;;;15.60;99.90;;;;;;4949712;29;20039;-77
2022/11/24 12:14:20;;;;;;;9.55;3.17;;;14.90;99.90;;;;;;4949100;29;20032;-75
2022/11/24 12:17:19;;;;;;;17.67;4.20;;;14.80;99.90;;;;;;4949184;29;20040;-76
2022/11/24 12:20:00;;;;;;;14.50;6.35;;;14.70;99.90;;;;;;4944591;29;20396;-75
2022/11/24 12:22:53;;;;;;;6.50;4.63;;;14.90;99.90;;;;;;4932008;29;20057;-74
2022/11/24 12:25:31;;;;;;;7.53;3.80;;;14.90;99.90;;;;;;4913850;29;20044;-76
2022/11/24 12:28:06;;;;;;;8.48;3.58;;;14.90;99.90;;;;;;4949356;29;20027;-77
2022/11/24 12:31:05;;;;;;;15.52;6.78;;;15.00;99.90;;;;;;4931944;29;20437;-76
2022/11/24 12:33:34;;;;;;;9.93;2.97;;;15.00;99.90;;;;;;4930294;29;20028;-76
2022/11/24 12:36:08;;;;;;;8.55;3.80;;;15.00;99.90;;;;;;4946345;29;20066;-75
2022/11/24 12:38:53;;;;;;;5.25;2.17;;;15.10;99.90;;;;;;4949111;29;20036;-77
2022/11/24 12:41:43;;;;;;;5.32;2.25;;;15.40;99.90;;;;;;4948382;29;20046;-75
2022/11/24 12:44:39;;;;;;;11.10;2.63;;;15.50;99.90;;;;;;4948341;29;20039;-76
2022/11/24 12:47:13;;;;;;;17.00;4.72;;;15.50;99.90;;;;;;4931612;29;20027;-76
2022/11/24 12:49:54;;;;;;;6.93;3.25;;;15.10;99.90;;;;;;4948412;29;20090;-76
2022/11/24 12:52:23;;;;;;;11.95;2.70;;;15.00;99.90;;;;;;4948683;29;20555;-76
2022/11/24 12:54:48;;;;;;;6.25;3.05;;;14.90;99.90;;;;;;4949038;29;20120;-76
2022/11/24 12:57:26;;;;;;;16.77;5.50;;;14.70;99.90;;;;;;4948638;29;20034;-75
2022/11/24 13:00:06;;;;;;;9.80;3.28;;;14.40;99.90;;;;;;4948589;29;20059;-76
2022/11/24 13:02:41;;;;;;;6.30;2.70;;;14.20;99.90;;;;;;4930802;29;20046;-76
2022/11/24 13:05:30;;;;;;;8.10;3.75;;;14.20;99.90;;;;;;4948753;29;20079;-76